createdAt,value
2019-05-12T00:01:12.654Z,7.70
2019-05-12T00:03:41.921Z,7.60
2019-05-12T00:06:10.663Z,7.50
2019-05-12T00:08:39.421Z,7.50
2019-05-12T00:11:08.932Z,7.40
2019-05-12T00:13:38.493Z,7.40
2019-05-12T00:16:08.770Z,7.40
2019-05-12T00:18:37.904Z,7.30
2019-05-12T00:21:08.781Z,7.20
2019-05-12T00:23:58.252Z,7.10
2019-05-12T00:26:28.261Z,7.00
2019-05-12T00:28:58.823Z,7.00
2019-05-12T00:31:28.141Z,6.90
2019-05-12T00:33:58.697Z,6.80
2019-05-12T00:36:29.272Z,6.80
2019-05-12T00:38:58.221Z,6.80
2019-05-12T00:41:28.407Z,6.70
2019-05-12T00:43:58.268Z,6.60
2019-05-12T00:46:27.818Z,6.50
2019-05-12T00:48:58.517Z,6.40
2019-05-12T00:51:28.817Z,6.40
2019-05-12T00:53:58.147Z,6.30
2019-05-12T00:56:28.472Z,6.40
2019-05-12T00:58:58.027Z,6.30
2019-05-12T01:01:28.609Z,6.20
2019-05-12T01:03:57.979Z,6.20
2019-05-12T01:06:28.204Z,6.20
2019-05-12T01:08:57.906Z,6.20
2019-05-12T01:11:28.542Z,6.30
2019-05-12T01:13:58.323Z,6.20
2019-05-12T01:16:28.918Z,6.30
2019-05-12T01:18:58.623Z,6.30
2019-05-12T01:21:28.717Z,6.30
2019-05-12T01:24:03.364Z,6.30
2019-05-12T01:26:28.541Z,6.20
2019-05-12T01:28:58.082Z,6.30
2019-05-12T01:31:29.353Z,6.30
2019-05-12T01:33:58.628Z,6.30
2019-05-12T01:36:28.627Z,6.30
2019-05-12T01:39:01.599Z,6.30
2019-05-12T01:41:28.813Z,6.30
2019-05-12T01:43:58.422Z,6.30
2019-05-12T01:46:48.376Z,6.40
2019-05-12T01:49:18.639Z,6.40
2019-05-12T01:51:47.944Z,6.40
2019-05-12T01:54:18.703Z,6.40
2019-05-12T01:56:48.366Z,6.40
2019-05-12T01:59:18.540Z,6.40
2019-05-12T02:01:48.767Z,6.40
2019-05-12T02:04:18.214Z,6.40
2019-05-12T02:06:48.575Z,6.30
2019-05-12T02:09:19.108Z,6.30
2019-05-12T02:11:48.343Z,6.30
2019-05-12T02:14:18.253Z,6.30
2019-05-12T02:16:47.737Z,6.40
2019-05-12T02:19:17.883Z,6.40
2019-05-12T02:21:48.744Z,6.40
2019-05-12T02:24:26.766Z,6.40
2019-05-12T02:26:48.663Z,6.50
2019-05-12T02:29:18.374Z,6.50
2019-05-12T02:31:50.076Z,6.40
2019-05-12T02:34:17.885Z,6.40
2019-05-12T02:36:46.681Z,6.40
2019-05-12T02:39:15.489Z,6.40
2019-05-12T02:41:44.977Z,6.40
2019-05-12T02:44:15.147Z,6.50
2019-05-12T02:46:44.735Z,6.50
2019-05-12T02:49:15.672Z,6.40
2019-05-12T02:51:45.579Z,6.50
2019-05-12T02:54:15.214Z,6.50
2019-05-12T02:56:46.283Z,6.50
2019-05-12T02:59:16.731Z,6.50
2019-05-12T03:01:48.197Z,6.50
2019-05-12T03:04:18.988Z,6.50
2019-05-12T03:06:48.589Z,6.50
2019-05-12T03:09:17.502Z,6.60
2019-05-12T03:11:46.380Z,6.50
2019-05-12T03:14:15.894Z,6.50
2019-05-12T03:16:45.538Z,6.50
2019-05-12T03:19:15.137Z,6.60
2019-05-12T03:21:44.348Z,6.50
2019-05-12T03:24:14.671Z,6.60
2019-05-12T03:26:44.969Z,6.60
2019-05-12T03:29:14.984Z,6.60
2019-05-12T03:31:48.872Z,6.60
2019-05-12T03:34:19.448Z,6.60
2019-05-12T03:36:50.636Z,6.60
2019-05-12T03:39:16.000Z,6.60
2019-05-12T03:41:45.065Z,6.70
2019-05-12T03:44:15.044Z,6.70
2019-05-12T03:46:45.525Z,6.80
2019-05-12T03:49:15.535Z,6.70
2019-05-12T03:51:45.697Z,6.70
2019-05-12T03:54:15.448Z,6.70
2019-05-12T03:56:45.137Z,6.70
2019-05-12T03:59:15.058Z,6.80
2019-05-12T04:01:45.298Z,6.80
2019-05-12T04:04:15.294Z,6.80
2019-05-12T04:06:45.304Z,6.80
2019-05-12T04:09:15.457Z,6.70
2019-05-12T04:11:44.684Z,6.80
2019-05-12T04:14:14.815Z,6.80
2019-05-12T04:16:45.139Z,6.80
2019-05-12T04:19:14.827Z,6.70
2019-05-12T04:21:44.798Z,6.70
2019-05-12T04:24:14.446Z,6.70
2019-05-12T04:26:44.973Z,6.70
2019-05-12T04:29:15.446Z,6.80
2019-05-12T04:31:44.861Z,6.80
2019-05-12T04:34:18.708Z,6.90
2019-05-12T04:36:45.309Z,6.90
2019-05-12T04:39:14.887Z,6.80
2019-05-12T04:41:44.747Z,6.80
2019-05-12T04:44:15.286Z,6.80
2019-05-12T04:46:45.203Z,6.70
2019-05-12T04:49:15.797Z,6.80
2019-05-12T04:51:45.180Z,6.80
2019-05-12T04:54:15.179Z,6.90
2019-05-12T04:56:44.744Z,6.90
2019-05-12T04:59:15.789Z,7.00
2019-05-12T05:01:45.377Z,7.00
2019-05-12T05:04:15.646Z,7.00
2019-05-12T05:06:45.052Z,7.00
2019-05-12T05:09:14.607Z,7.00
2019-05-12T05:11:45.174Z,7.00
2019-05-12T05:14:14.613Z,7.00
2019-05-12T05:16:45.117Z,7.10
2019-05-12T05:19:14.017Z,7.10
2019-05-12T05:21:43.734Z,7.20
2019-05-12T05:24:14.251Z,7.20
2019-05-12T05:26:43.711Z,7.20
2019-05-12T05:29:13.564Z,7.20
2019-05-12T05:31:44.239Z,7.20
2019-05-12T05:34:14.857Z,7.30
2019-05-12T05:36:44.203Z,7.30
2019-05-12T05:39:13.903Z,7.30
2019-05-12T05:41:46.547Z,7.30
2019-05-12T05:44:14.051Z,7.30
2019-05-12T05:46:48.226Z,7.40
2019-05-12T05:49:13.645Z,7.40
2019-05-12T05:51:46.211Z,7.40
2019-05-12T05:54:13.810Z,7.40
2019-05-12T05:56:57.522Z,7.50
2019-05-12T05:59:15.172Z,7.50
2019-05-12T06:01:46.965Z,7.60
2019-05-12T06:04:15.734Z,7.60
2019-05-12T06:06:50.807Z,7.60
2019-05-12T06:09:43.163Z,7.70
2019-05-12T06:12:13.409Z,7.80
2019-05-12T06:14:48.759Z,7.90
2019-05-12T06:17:14.583Z,7.90
2019-05-12T06:19:43.865Z,7.90
2019-05-12T06:22:17.376Z,8.00
2019-05-12T06:24:49.132Z,8.00
2019-05-12T06:27:20.851Z,8.00
2019-05-12T06:29:45.935Z,8.10
2019-05-12T06:32:14.708Z,8.10
2019-05-12T06:34:43.624Z,8.10
2019-05-12T06:37:16.922Z,8.10
2019-05-12T06:39:43.855Z,8.20
2019-05-12T06:42:16.804Z,8.20
2019-05-12T06:44:43.838Z,8.10
2019-05-12T06:47:14.317Z,8.10
2019-05-12T06:49:43.972Z,8.10
2019-05-12T06:52:14.363Z,8.20
2019-05-12T06:54:51.180Z,8.40
2019-05-12T06:57:22.264Z,8.40
2019-05-12T06:59:50.992Z,8.50
2019-05-12T07:02:15.715Z,8.60
2019-05-12T07:04:47.488Z,8.60
2019-05-12T07:07:15.393Z,8.80
2019-05-12T07:09:54.290Z,8.90
2019-05-12T07:12:15.111Z,9.10
2019-05-12T07:14:44.299Z,9.20
2019-05-12T07:17:28.709Z,9.40
2019-05-12T07:19:58.409Z,9.60
2019-05-12T07:22:31.854Z,10.20
2019-05-12T07:24:57.804Z,10.60
2019-05-12T07:27:36.604Z,10.80
2019-05-12T07:29:57.634Z,11.10
2019-05-12T07:32:26.575Z,11.30
2019-05-12T07:34:55.375Z,11.50
2019-05-12T07:37:25.734Z,11.80
2019-05-12T07:39:55.488Z,12.20
2019-05-12T07:42:31.484Z,12.60
2019-05-12T07:44:58.920Z,13.00
2019-05-12T07:47:29.412Z,12.90
2019-05-12T07:49:59.997Z,13.00
2019-05-12T07:52:29.273Z,13.10
2019-05-12T07:54:58.381Z,12.80
2019-05-12T07:57:27.905Z,12.90
2019-05-12T07:59:57.134Z,13.00
2019-05-12T08:02:31.548Z,12.90
2019-05-12T08:04:57.145Z,13.10
2019-05-12T08:07:29.816Z,13.50
2019-05-12T08:09:57.133Z,13.80
2019-05-12T08:12:29.255Z,14.00
2019-05-12T08:14:59.282Z,14.30
2019-05-12T08:17:37.378Z,14.30
2019-05-12T08:28:36.071Z,13.70
2019-05-12T08:31:56.533Z,13.50
2019-05-12T08:36:16.740Z,13.20
2019-05-12T08:41:36.353Z,12.90
2019-05-12T09:05:53.733Z,13.10
2019-05-12T09:09:28.456Z,13.10
2019-05-12T09:24:40.395Z,14.70
2019-05-12T09:27:10.765Z,14.70
2019-05-12T09:27:17.180Z,14.20
2019-05-12T09:29:39.562Z,14.70
2019-05-12T09:32:09.715Z,14.50
2019-05-12T09:34:38.945Z,14.80
2019-05-12T09:37:07.888Z,14.90
2019-05-12T09:39:42.589Z,15.30
2019-05-12T09:42:09.220Z,14.90
2019-05-12T09:44:41.156Z,15.00
2019-05-12T09:47:19.495Z,15.90
2019-05-12T09:49:39.806Z,17.00
2019-05-12T09:52:16.285Z,16.50
2019-05-12T09:54:40.751Z,16.10
2019-05-12T09:57:10.093Z,16.30
2019-05-12T09:59:39.047Z,16.40
2019-05-12T10:02:10.468Z,17.20
2019-05-12T10:04:38.672Z,17.10
2019-05-12T10:07:07.752Z,17.10
2019-05-12T10:09:36.587Z,16.20
2019-05-12T10:12:05.774Z,15.60
2019-05-12T10:14:35.167Z,14.90
2019-05-12T10:17:04.349Z,15.10
2019-05-12T10:19:34.006Z,16.10
2019-05-12T10:22:03.243Z,16.80
2019-05-12T10:24:40.562Z,16.80
2019-05-12T10:27:04.673Z,17.40
2019-05-12T10:29:33.800Z,17.50
2019-05-12T10:32:03.964Z,17.70
2019-05-12T10:34:35.982Z,17.70
2019-05-12T10:37:04.201Z,17.80
2019-05-12T10:39:33.535Z,18.20
2019-05-12T10:42:04.067Z,18.20
2019-05-12T10:44:40.406Z,18.20
2019-05-12T10:47:08.157Z,17.70
2019-05-12T10:49:36.954Z,17.10
2019-05-12T10:52:05.856Z,17.40
2019-05-12T10:54:34.883Z,17.80
2019-05-12T10:57:04.952Z,18.00
2019-05-12T10:59:38.868Z,17.70
2019-05-12T11:02:05.117Z,17.40
2019-05-12T11:04:39.412Z,17.10
2019-05-12T11:07:05.271Z,17.10
2019-05-12T11:09:34.653Z,17.30
2019-05-12T11:12:03.649Z,17.80
2019-05-12T11:14:34.158Z,17.80
2019-05-12T11:17:07.564Z,17.30
2019-05-12T11:19:40.767Z,17.00
2019-05-12T11:22:06.465Z,16.80
2019-05-12T11:24:35.221Z,16.90
2019-05-12T11:27:04.264Z,17.00
2019-05-12T11:29:45.798Z,17.10
2019-05-12T11:32:03.776Z,16.60
2019-05-12T11:34:33.594Z,16.00
2019-05-12T11:37:03.401Z,15.70
2019-05-12T11:39:37.171Z,15.60
2019-05-12T11:42:04.186Z,15.30
2019-05-12T11:44:33.669Z,15.60
2019-05-12T11:47:03.652Z,15.70
2019-05-12T11:49:33.619Z,15.80
2019-05-12T11:52:07.624Z,15.50
2019-05-12T11:54:33.564Z,15.40
2019-05-12T11:57:02.421Z,15.30
2019-05-12T11:59:34.022Z,15.20
2019-05-12T12:02:02.463Z,15.20
2019-05-12T12:04:46.404Z,15.20
2019-05-12T12:07:16.195Z,15.10
2019-05-12T12:09:49.550Z,15.10
2019-05-12T12:12:15.617Z,15.00
2019-05-12T12:14:46.180Z,15.00
2019-05-12T12:17:15.355Z,15.10
2019-05-12T12:19:46.872Z,15.10
2019-05-12T12:22:14.757Z,15.20
2019-05-12T12:24:43.776Z,15.20
2019-05-12T12:27:14.232Z,15.10
2019-05-12T12:29:43.965Z,15.20
2019-05-12T12:32:16.897Z,15.20
2019-05-12T12:34:44.053Z,15.10
2019-05-12T12:37:13.710Z,15.30
2019-05-12T12:39:43.430Z,15.40
2019-05-12T12:42:13.979Z,15.50
2019-05-12T12:44:42.876Z,15.30
2019-05-12T12:47:13.542Z,15.00
2019-05-12T12:49:45.266Z,15.10
2019-05-12T12:52:13.861Z,15.10
2019-05-12T12:54:43.859Z,15.20
2019-05-12T12:57:13.660Z,15.40
2019-05-12T12:59:50.993Z,15.30
2019-05-12T13:02:14.247Z,15.40
2019-05-12T13:04:45.933Z,15.40
2019-05-12T13:07:15.619Z,15.40
2019-05-12T13:09:44.469Z,15.30
2019-05-12T13:12:19.451Z,15.30
2019-05-12T13:14:47.445Z,15.30
2019-05-12T13:17:29.044Z,15.40
2019-05-12T13:19:54.735Z,15.50
2019-05-12T13:22:24.512Z,15.70
2019-05-12T13:24:58.344Z,15.70
2019-05-12T13:27:28.952Z,15.80
2019-05-12T13:29:55.346Z,15.90
2019-05-12T13:32:32.143Z,15.80
2019-05-12T13:34:55.158Z,15.80
2019-05-12T13:37:23.968Z,15.70
2019-05-12T13:39:56.828Z,15.70
2019-05-12T13:42:24.156Z,15.60
2019-05-12T13:44:53.398Z,15.60
2019-05-12T13:47:22.269Z,15.70
2019-05-12T13:49:51.102Z,15.80
2019-05-12T13:52:20.350Z,15.70
2019-05-12T13:54:50.328Z,15.70
2019-05-12T13:57:19.445Z,15.80
2019-05-12T13:59:53.693Z,15.80
2019-05-12T14:02:23.459Z,15.80
2019-05-12T14:04:53.569Z,15.80
2019-05-12T14:07:23.665Z,15.70
2019-05-12T14:09:52.604Z,15.70
2019-05-12T14:12:21.811Z,15.60
2019-05-12T14:14:50.856Z,15.60
2019-05-12T14:17:19.654Z,15.60
2019-05-12T14:19:48.419Z,15.50
2019-05-12T14:22:21.234Z,15.60
2019-05-12T14:24:47.959Z,15.70
2019-05-12T14:27:19.077Z,15.70
2019-05-12T14:29:47.443Z,15.70
2019-05-12T14:32:17.358Z,15.50
2019-05-12T14:34:50.993Z,15.40
2019-05-12T14:37:17.719Z,15.30
2019-05-12T14:39:50.246Z,15.20
2019-05-12T14:42:17.270Z,15.30
2019-05-12T14:44:49.609Z,15.30
2019-05-12T14:47:19.226Z,15.30
2019-05-12T14:49:47.480Z,15.30
2019-05-12T14:52:16.541Z,15.30
2019-05-12T14:54:45.334Z,15.20
2019-05-12T14:57:14.141Z,15.20
2019-05-12T14:59:42.904Z,15.30
2019-05-12T15:02:13.592Z,15.30
2019-05-12T15:04:43.571Z,15.30
2019-05-12T15:07:12.472Z,15.20
2019-05-12T15:09:41.458Z,15.20
2019-05-12T15:12:10.478Z,15.20
2019-05-12T15:14:39.473Z,15.20
2019-05-12T15:17:13.853Z,15.10
2019-05-12T15:19:38.831Z,15.00
2019-05-12T15:22:11.629Z,15.00
2019-05-12T15:24:38.375Z,15.10
2019-05-12T15:27:07.155Z,15.10
2019-05-12T15:29:35.997Z,15.10
2019-05-12T15:32:04.902Z,15.10
2019-05-12T15:34:34.193Z,15.10
2019-05-12T15:37:04.174Z,15.10
2019-05-12T15:39:33.644Z,15.10
2019-05-12T15:42:03.474Z,15.10
2019-05-12T15:44:36.689Z,15.20
2019-05-12T15:47:03.907Z,15.10
2019-05-12T15:49:33.709Z,15.20
2019-05-12T15:52:03.498Z,15.10
2019-05-12T15:54:33.983Z,15.10
2019-05-12T15:57:04.218Z,15.10
2019-05-12T15:59:34.468Z,15.10
2019-05-12T16:02:12.262Z,15.10
2019-05-12T16:04:42.270Z,15.10
2019-05-12T16:07:04.475Z,15.20
2019-05-12T16:09:34.459Z,15.20
2019-05-12T16:12:09.965Z,15.20
2019-05-12T16:14:36.869Z,15.10
2019-05-12T16:17:06.557Z,15.20
2019-05-12T16:19:35.855Z,15.10
2019-05-12T16:22:04.693Z,15.20
2019-05-12T16:24:34.154Z,15.20
2019-05-12T16:27:03.584Z,15.20
2019-05-12T16:29:34.010Z,15.10
2019-05-12T16:32:04.539Z,15.10
2019-05-12T16:34:36.067Z,15.10
2019-05-12T16:37:04.318Z,15.10
2019-05-12T16:39:37.029Z,15.00
2019-05-12T16:42:08.222Z,14.90
2019-05-12T16:44:34.872Z,14.90
2019-05-12T16:47:04.268Z,14.90
2019-05-12T16:49:34.660Z,14.80
2019-05-12T16:52:03.887Z,14.70
2019-05-12T16:54:33.537Z,14.70
2019-05-12T16:57:08.464Z,14.60
2019-05-12T16:59:33.000Z,14.60
2019-05-12T17:02:07.655Z,14.40
2019-05-12T17:04:33.359Z,14.40
2019-05-12T17:07:02.284Z,14.30
2019-05-12T17:09:33.119Z,14.30
2019-05-12T17:12:01.783Z,14.30
2019-05-12T17:14:38.679Z,14.30
2019-05-12T17:17:03.620Z,14.30
2019-05-12T17:19:33.944Z,14.30
2019-05-12T17:22:04.084Z,14.30
2019-05-12T17:24:34.417Z,14.20
2019-05-12T17:27:09.018Z,14.10
2019-05-12T17:29:34.157Z,14.00
2019-05-12T17:32:04.126Z,14.00
2019-05-12T17:34:34.092Z,14.00
2019-05-12T17:37:03.937Z,14.00
2019-05-12T17:39:35.726Z,14.00
2019-05-12T17:42:03.969Z,13.90
2019-05-12T17:44:36.762Z,13.90
2019-05-12T17:47:03.850Z,13.80
2019-05-12T17:49:32.731Z,13.80
2019-05-12T17:52:04.469Z,13.70
2019-05-12T17:54:34.022Z,13.70
2019-05-12T17:57:03.988Z,13.70
2019-05-12T17:59:33.327Z,13.70
2019-05-12T18:02:11.342Z,13.60
2019-05-12T18:04:36.670Z,13.60
2019-05-12T18:07:12.183Z,13.50
2019-05-12T18:09:33.883Z,13.50
2019-05-12T18:12:04.230Z,13.50
2019-05-12T18:14:44.996Z,13.40
2019-05-12T18:17:08.460Z,13.30
2019-05-12T18:19:34.434Z,13.30
2019-05-12T18:22:09.050Z,13.20
2019-05-12T18:24:34.394Z,13.20
2019-05-12T18:27:06.744Z,13.20
2019-05-12T18:29:34.275Z,13.10
2019-05-12T18:32:04.909Z,13.00
2019-05-12T18:34:34.049Z,12.90
2019-05-12T18:37:05.198Z,13.00
2019-05-12T18:39:34.391Z,12.90
2019-05-12T18:42:03.616Z,12.90
2019-05-12T18:44:32.727Z,12.90
2019-05-12T18:47:04.132Z,12.80
2019-05-12T18:49:33.700Z,12.70
2019-05-12T18:52:03.979Z,12.70
2019-05-12T18:54:34.579Z,12.70
2019-05-12T18:57:07.183Z,12.60
2019-05-12T18:59:34.022Z,12.40
2019-05-12T19:02:03.621Z,12.50
2019-05-12T19:04:33.931Z,12.50
2019-05-12T19:07:03.770Z,12.40
2019-05-12T19:09:33.515Z,12.40
2019-05-12T19:12:02.630Z,12.40
2019-05-12T19:14:37.089Z,12.30
2019-05-12T19:17:03.561Z,12.30
2019-05-12T19:19:32.832Z,12.20
2019-05-12T19:22:08.747Z,12.10
2019-05-12T19:24:36.051Z,12.10
2019-05-12T19:27:04.402Z,12.10
2019-05-12T19:29:39.030Z,12.00
2019-05-12T19:32:04.644Z,12.00
2019-05-12T19:34:37.531Z,11.90
2019-05-12T19:37:06.239Z,11.90
2019-05-12T19:39:35.202Z,11.90
2019-05-12T19:42:04.210Z,11.80
2019-05-12T19:44:34.257Z,11.80
2019-05-12T19:47:03.254Z,11.70
2019-05-12T19:49:45.954Z,11.70
2019-05-12T19:52:03.537Z,11.60
2019-05-12T19:54:36.364Z,11.70
2019-05-12T19:57:02.982Z,11.60
2019-05-12T19:59:34.015Z,11.60
2019-05-12T20:02:04.108Z,11.60
2019-05-12T20:04:36.559Z,11.60
2019-05-12T20:07:03.814Z,11.60
2019-05-12T20:09:32.850Z,11.60
2019-05-12T20:12:07.818Z,11.60
2019-05-12T20:14:34.377Z,11.60
2019-05-12T20:17:02.858Z,11.60
2019-05-12T20:19:33.894Z,11.60
2019-05-12T20:22:03.507Z,11.60
2019-05-12T20:24:32.684Z,11.60
2019-05-12T20:27:03.917Z,11.50
2019-05-12T20:29:33.903Z,11.60
2019-05-12T20:32:04.707Z,11.60
2019-05-12T20:34:45.904Z,11.50
2019-05-12T20:37:08.701Z,11.50
2019-05-12T20:39:34.552Z,11.50
2019-05-12T20:42:05.240Z,11.50
2019-05-12T20:44:34.476Z,11.50
2019-05-12T20:47:06.271Z,11.50
2019-05-12T20:49:34.592Z,11.50
2019-05-12T20:52:06.991Z,11.50
2019-05-12T20:54:34.177Z,11.50
2019-05-12T20:57:07.843Z,11.50
2019-05-12T20:59:33.826Z,11.50
2019-05-12T21:02:03.602Z,11.50
2019-05-12T21:04:37.420Z,11.50
2019-05-12T21:07:04.550Z,11.50
2019-05-12T21:09:34.886Z,11.40
2019-05-12T21:12:03.840Z,11.40
2019-05-12T21:14:33.479Z,11.40
2019-05-12T21:17:08.053Z,11.40
2019-05-12T21:19:35.660Z,11.50
2019-05-12T21:22:04.098Z,11.50
2019-05-12T21:24:36.184Z,11.40
2019-05-12T21:27:03.932Z,11.40
2019-05-12T21:29:33.350Z,11.30
2019-05-12T21:32:11.655Z,11.30
2019-05-12T21:34:34.524Z,11.30
2019-05-12T21:37:04.925Z,11.20
2019-05-12T21:39:34.487Z,11.20
2019-05-12T21:42:03.988Z,11.20
2019-05-12T21:44:32.903Z,11.20
2019-05-12T21:47:07.786Z,11.10
2019-05-12T21:49:33.235Z,11.10
2019-05-12T21:52:04.120Z,11.10
2019-05-12T21:54:35.919Z,11.10
2019-05-12T21:57:03.215Z,11.20
2019-05-12T21:59:35.280Z,11.10
2019-05-12T22:02:04.317Z,11.10
2019-05-12T22:04:41.255Z,11.10
2019-05-12T22:07:06.958Z,11.10
2019-05-12T22:09:41.539Z,11.00
2019-05-12T22:12:05.283Z,11.00
2019-05-12T22:14:38.664Z,10.90
2019-05-12T22:17:06.252Z,11.00
2019-05-12T22:19:38.163Z,10.90
2019-05-12T22:22:05.465Z,10.80
2019-05-12T22:24:38.783Z,10.90
2019-05-12T22:27:05.159Z,10.80
2019-05-12T22:29:34.317Z,10.90
2019-05-12T22:32:05.121Z,10.90
2019-05-12T22:34:37.192Z,10.90
2019-05-12T22:37:04.414Z,10.80
2019-05-12T22:39:34.187Z,10.70
2019-05-12T22:42:03.705Z,10.70
2019-05-12T22:44:34.695Z,10.60
2019-05-12T22:47:12.236Z,10.60
2019-05-12T22:49:34.047Z,10.50
2019-05-12T22:52:06.316Z,10.50
2019-05-12T22:54:33.667Z,10.50
2019-05-12T22:57:04.049Z,10.50
2019-05-12T22:59:40.444Z,10.40
2019-05-12T23:02:04.420Z,10.30
2019-05-12T23:04:39.633Z,10.30
2019-05-12T23:07:04.059Z,10.30
2019-05-12T23:09:33.933Z,10.30
2019-05-12T23:12:04.267Z,10.30
2019-05-12T23:14:34.033Z,10.30
2019-05-12T23:17:05.576Z,10.30
2019-05-12T23:19:34.118Z,10.20
2019-05-12T23:22:03.539Z,10.10
2019-05-12T23:24:38.805Z,10.20
2019-05-12T23:27:04.843Z,10.10
2019-05-12T23:29:34.326Z,10.10
2019-05-12T23:32:07.413Z,10.10
2019-05-12T23:34:33.977Z,10.00
2019-05-12T23:37:03.811Z,10.00
2019-05-12T23:39:38.239Z,9.90
2019-05-12T23:42:04.388Z,9.90
2019-05-12T23:44:33.503Z,9.80
2019-05-12T23:47:04.355Z,9.80
2019-05-12T23:49:33.654Z,9.90
2019-05-12T23:52:03.906Z,9.80
2019-05-12T23:54:34.446Z,9.80
2019-05-12T23:57:03.855Z,9.70
2019-05-12T23:59:33.388Z,9.60
